»·PEaware :: RPA430 KPSC-KSEA

RPA430 :: KPSC-KSEA

FLIGHT INFORMATION

Flight Status: Arrived
Operator: Republic Airlines
More flights by this operator :: More flights under this callsign
Pilot: Andrew F. (4171)
Aircraft: EMBRAER EMB-170/175
(E170)
More flights by this aircraft type
Origin: KPSC Tri-Cities
United States
Destination: KSEA Seattle-Tacoma Intl
United States
More flights between these airports :: More routes between these airports
Route: PSC7 PSC V204 YKM V4 CHINS CHINS4
File this flight plan on PilotEdge
Remarks:
Altitude:
(Current/Filed)
26,000ft
Speed:
(Current/Filed)
380kts
Departed: 07-Sep-22 07:39 AM
Arrived: 07-Sep-22 08:17 AM
Distance/Time
Traveled:
149nm/0:38
Distance/Time
To Go:
Arrived

Flight Plot

Page will automatically refresh every two minutes.

Flight plan parsing failed; only flown route is shown


Map Options




Map Legend


Flown Route
Filed Route
Departure Airport
Arrival Airport
Navaid (VOR, NDB)
Fix

Horizontal Profiles

Position Reports

Time Latitude Longitude Heading Altitude Ground
Speed
07-Sep-22 07:06 46.259530 -119.113891 269 403ft 0kts
07-Sep-22 07:07 46.259530 -119.113891 269 403ft 0kts
07-Sep-22 07:08 46.259530 -119.113891 269 403ft 0kts
07-Sep-22 07:09 46.259530 -119.113891 269 403ft 0kts
07-Sep-22 07:10 46.259530 -119.113891 269 403ft 0kts
07-Sep-22 07:11 46.259530 -119.113891 269 403ft 0kts
07-Sep-22 07:12 46.259530 -119.113891 269 403ft 0kts
07-Sep-22 07:13 46.259530 -119.113891 269 403ft 0kts
07-Sep-22 07:14 46.259530 -119.113891 269 403ft 0kts
07-Sep-22 07:15 46.259530 -119.113891 269 403ft 0kts
07-Sep-22 07:16 46.259530 -119.113891 269 403ft 0kts
07-Sep-22 07:17 46.259530 -119.113891 269 403ft 0kts
07-Sep-22 07:18 46.259530 -119.113891 269 403ft 0kts
07-Sep-22 07:19 46.259530 -119.113891 269 403ft 0kts
07-Sep-22 07:20 46.259530 -119.113891 269 403ft 0kts
07-Sep-22 07:21 46.259530 -119.113891 269 403ft 0kts
07-Sep-22 07:22 46.259530 -119.113891 269 403ft 0kts
07-Sep-22 07:23 46.259530 -119.113891 269 403ft 0kts
07-Sep-22 07:24 46.259530 -119.113891 269 403ft 0kts
07-Sep-22 07:25 46.259530 -119.113891 269 403ft 0kts
07-Sep-22 07:25 46.259530 -119.113891 269 403ft 0kts
07-Sep-22 07:26 46.259530 -119.113891 269 403ft 0kts
07-Sep-22 07:28 46.259530 -119.113891 269 403ft 0kts
07-Sep-22 07:29 46.259530 -119.113898 269 403ft 0kts
07-Sep-22 07:29 46.259534 -119.113438 269 403ft 2kts
07-Sep-22 07:30 46.259337 -119.112677 329 403ft 1kts
07-Sep-22 07:31 46.259307 -119.112651 331 403ft 0kts
07-Sep-22 07:32 46.259307 -119.112651 331 403ft 0kts
07-Sep-22 07:34 46.259317 -119.112659 331 403ft 0kts
07-Sep-22 07:34 46.259667 -119.112733 353 403ft 9kts
07-Sep-22 07:35 46.258380 -119.108914 135 406ft 20kts
07-Sep-22 07:36 46.257863 -119.107747 63 407ft 0kts
07-Sep-22 07:37 46.258231 -119.107104 44 409ft 7kts
07-Sep-22 07:38 46.267032 -119.118940 316 512ft 131kts
07-Sep-22 07:39 46.295004 -119.157802 317 2418ft 170kts
07-Sep-22 07:40 46.332204 -119.206863 315 5660ft 194kts
07-Sep-22 07:41 46.380273 -119.268599 315 8862ft 243kts
07-Sep-22 07:42 46.409729 -119.341006 276 10780ft 216kts
07-Sep-22 07:43 46.417416 -119.424594 268 14220ft 212kts
07-Sep-22 07:44 46.421508 -119.511162 268 16865ft 226kts
07-Sep-22 07:45 46.426323 -119.617087 269 18193ft 295kts
07-Sep-22 07:46 46.431976 -119.737481 268 20972ft 305kts
07-Sep-22 07:47 46.440686 -119.862115 279 23404ft 322kts
07-Sep-22 07:48 46.468266 -119.993833 282 24919ft 357kts
07-Sep-22 07:49 46.500363 -120.134823 282 26023ft 359kts
07-Sep-22 07:50 46.532642 -120.277482 282 26051ft 372kts
07-Sep-22 07:51 46.565433 -120.421343 288 26049ft 378kts
07-Sep-22 07:52 46.622597 -120.553204 297 24746ft 376kts
07-Sep-22 07:53 46.681222 -120.676837 297 23096ft 370kts
07-Sep-22 07:54 46.738770 -120.798278 297 21503ft 360kts
07-Sep-22 07:55 46.794848 -120.916785 297 19937ft 351kts
07-Sep-22 07:56 46.849411 -121.032777 298 18386ft 342kts
07-Sep-22 07:57 46.902389 -121.145701 298 16869ft 332kts
07-Sep-22 07:58 46.953724 -121.255693 299 15389ft 324kts
07-Sep-22 07:59 47.003877 -121.363574 300 13954ft 318kts
07-Sep-22 08:00 47.053053 -121.469784 301 12576ft 313kts
07-Sep-22 08:01 47.101046 -121.573907 300 12216ft 292kts
07-Sep-22 08:02 47.104112 -121.686348 265 10845ft 279kts
07-Sep-22 08:03 47.096846 -121.797535 266 8953ft 269kts
07-Sep-22 08:04 47.090828 -121.905719 266 7090ft 262kts
07-Sep-22 08:05 47.084926 -122.012936 267 6522ft 281kts
07-Sep-22 08:06 47.079951 -122.119429 278 5707ft 231kts
07-Sep-22 08:07 47.105208 -122.201736 298 4804ft 207kts
07-Sep-22 08:08 47.139454 -122.266473 334 5650ft 213kts
07-Sep-22 08:09 47.192951 -122.301509 333 4338ft 205kts
07-Sep-22 08:10 47.240924 -122.310351 359 3746ft 159kts
07-Sep-22 08:11 47.280999 -122.310371 357 2832ft 135kts
07-Sep-22 08:12 47.318288 -122.310932 1 2403ft 135kts
07-Sep-22 08:13 47.357503 -122.308518 356 2295ft 148kts
07-Sep-22 08:14 47.398176 -122.308357 1 1213ft 145kts
07-Sep-22 08:15 47.436225 -122.308007 0 351ft 100kts
07-Sep-22 08:16 47.444265 -122.306352 359 387ft 12kts
07-Sep-22 08:17 47.447749 -122.304558 103 397ft 15kts
07-Sep-22 08:18 47.448114 -122.303091 43 398ft 0kts
07-Sep-22 08:19 47.448114 -122.303091 43 398ft 0kts

Navigation Log

Ident Type
Flight plan parsing failed, navigation log unavailable